Time;durP1;ratioP1;P1;durP2;ratioP2;P2;SDS_P1;SDS_P2;PMS_P1;PMS_P2;Temp;Humidity;BMP_temperature;BMP_pressure;BME280_temperature;BME280_humidity;BME280_pressure;Samples;Min_cycle;Max_cycle;Signal;HPM_P1;HPM_P2
2023/04/24 00:00:20;;;;;;;;;;;;;;;30.59;71.45;100997.59;5087092;27;70001;-45
2023/04/24 00:02:50;;;;;;;;;;;;;;;30.60;71.87;101005.50;5089297;27;66508;-44
2023/04/24 00:05:21;;;;;;;;;;;;;;;30.60;72.18;100997.38;5089501;27;70778;-45
2023/04/24 00:07:55;;;;;;;;;;;;;;;30.63;72.81;101005.06;5095598;27;67185;-46
2023/04/24 00:10:25;;;;;;;;;;;;;;;30.64;72.73;101005.91;5097465;27;69953;-44
2023/04/24 00:12:55;;;;;;;;;;;;;;;30.68;72.96;101012.56;5092632;27;66412;-45
2023/04/24 00:15:25;;;;;;;;;;;;;;;30.69;70.73;101009.63;5096535;27;69916;-44
2023/04/24 00:17:55;;;;;;;;;;;;;;;30.68;69.20;101010.66;5095453;27;66798;-45
2023/04/24 00:20:26;;;;;;;;;;;;;;;30.70;68.16;101005.88;5093327;27;70151;-44
2023/04/24 00:23:02;;;;;;;;;;;;;;;30.77;67.89;100994.19;5095782;27;65883;-44
2023/04/24 00:25:32;;;;;;;;;;;;;;;30.81;68.30;101001.66;5092564;27;70527;-42
2023/04/24 00:28:03;;;;;;;;;;;;;;;30.87;67.68;101002.66;5091557;27;65647;-44
2023/04/24 00:30:33;;;;;;;;;;;;;;;30.90;67.73;100994.13;5095120;27;68583;-44
2023/04/24 00:33:03;;;;;;;;;;;;;;;30.93;67.24;100999.94;5089861;27;66477;-44
2023/04/24 00:35:33;;;;;;;;;;;;;;;30.98;67.51;101006.56;5107143;27;70086;-44
2023/04/24 00:38:04;;;;;;;;;;;;;;;31.01;67.13;100998.84;5092572;27;65467;-44
2023/04/24 00:40:34;;;;;;;;;;;;;;;31.04;67.16;101011.97;5092999;27;70419;-43
2023/04/24 00:43:04;;;;;;;;;;;;;;;31.06;66.90;101020.69;5088302;27;66392;-43
2023/04/24 00:45:37;;;;;;;;;;;;;;;31.09;66.72;101025.69;5086612;27;69222;-44
2023/04/24 00:48:08;;;;;;;;;;;;;;;31.12;66.58;101027.97;5085356;27;66904;-45
2023/04/24 00:50:38;;;;;;;;;;;;;;;31.20;70.55;101036.84;5088674;27;70163;-44
2023/04/24 00:53:09;;;;;;;;;;;;;;;31.18;67.14;101034.38;5091522;27;67005;-47
2023/04/24 00:55:40;;;;;;;;;;;;;;;31.19;66.35;101041.44;5095424;27;69409;-43
2023/04/24 00:58:11;;;;;;;;;;;;;;;31.22;65.77;101040.19;5084661;27;66613;-47
2023/04/24 01:00:41;;;;;;;;;;;;;;;31.23;65.25;101045.41;5089055;27;70608;-46
2023/04/24 01:03:12;;;;;;;;;;;;;;;31.26;65.46;101035.97;5082695;27;66954;-45
2023/04/24 01:05:43;;;;;;;;;;;;;;;31.29;64.83;101057.25;5103484;27;70389;-47
2023/04/24 01:08:14;;;;;;;;;;;;;;;31.30;65.15;101051.59;5091546;27;66294;-46
2023/04/24 01:10:45;;;;;;;;;;;;;;;31.32;65.10;101060.34;5104363;27;70656;-44
2023/04/24 01:13:16;;;;;;;;;;;;;;;31.34;64.28;101065.53;5088384;27;66258;-45
2023/04/24 01:15:46;;;;;;;;;;;;;;;31.36;64.23;101067.00;5096615;27;70068;-44
2023/04/24 01:18:16;;;;;;;;;;;;;;;31.39;64.24;101060.31;5095807;27;66998;-46
2023/04/24 01:20:47;;;;;;;;;;;;;;;31.41;64.05;101071.78;5088065;27;69506;-45
2023/04/24 01:23:18;;;;;;;;;;;;;;;31.44;64.00;101071.34;5095566;27;66701;-45
2023/04/24 01:25:49;;;;;;;;;;;;;;;31.46;63.98;101077.38;5091879;27;69524;-45
2023/04/24 01:28:19;;;;;;;;;;;;;;;31.48;63.83;101077.13;5093808;27;65910;-49
2023/04/24 01:30:50;;;;;;;;;;;;;;;31.51;63.77;101076.69;5090485;27;70735;-44
2023/04/24 01:33:23;;;;;;;;;;;;;;;31.53;63.62;101077.31;5088877;27;66159;-44
2023/04/24 01:35:54;;;;;;;;;;;;;;;31.55;63.15;101067.91;5092357;27;70255;-47
2023/04/24 01:38:24;;;;;;;;;;;;;;;31.57;63.38;101070.41;5097681;27;66013;-46
2023/04/24 01:40:55;;;;;;;;;;;;;;;31.60;62.89;101073.50;5098647;27;69684;-44
2023/04/24 01:43:25;;;;;;;;;;;;;;;31.61;63.10;101067.03;5079114;27;66323;-44
2023/04/24 01:45:58;;;;;;;;;;;;;;;31.66;63.04;101073.69;5111373;27;69103;-45
2023/04/24 01:48:30;;;;;;;;;;;;;;;31.67;63.17;101062.59;5089533;27;66315;-44
2023/04/24 01:51:00;;;;;;;;;;;;;;;31.70;63.18;101058.63;5091858;27;70308;-43
2023/04/24 01:53:30;;;;;;;;;;;;;;;31.73;63.06;101058.16;5093977;27;66694;-42
2023/04/24 01:56:01;;;;;;;;;;;;;;;31.75;62.96;101056.91;5100947;27;69869;-46
2023/04/24 01:58:32;;;;;;;;;;;;;;;31.77;62.76;101059.41;5098106;27;66482;-44
2023/04/24 02:01:03;;;;;;;;;;;;;;;31.81;62.67;101066.03;5099975;27;70083;-47
2023/04/24 02:03:33;;;;;;;;;;;;;;;31.82;62.56;101062.28;5099411;27;67109;-45
2023/04/24 02:06:04;;;;;;;;;;;;;;;31.86;62.70;101068.09;5101184;27;70357;-44
2023/04/24 02:08:35;;;;;;;;;;;;;;;31.88;61.90;101072.22;5085555;27;65292;-45
2023/04/24 02:11:05;;;;;;;;;;;;;;;31.91;62.48;101076.38;5108592;27;70343;-44
2023/04/24 02:13:36;;;;;;;;;;;;;;;31.93;62.61;101079.72;5097274;27;67053;-45
2023/04/24 02:16:06;;;;;;;;;;;;;;;31.96;62.63;101074.69;5091283;27;70761;-44
2023/04/24 02:18:37;;;;;;;;;;;;;;;31.98;62.27;101083.44;5095480;27;65885;-45
2023/04/24 02:21:07;;;;;;;;;;;;;;;32.01;62.04;101077.56;5103275;27;68543;-44
2023/04/24 02:23:37;;;;;;;;;;;;;;;32.03;62.07;101086.28;5090168;27;66403;-45
2023/04/24 02:26:07;;;;;;;;;;;;;;;32.05;61.70;101095.06;5087801;27;69185;-47
2023/04/24 02:28:38;;;;;;;;;;;;;;;32.09;62.04;101089.19;5083899;27;66312;-43
2023/04/24 02:31:08;;;;;;;;;;;;;;;32.12;61.74;101083.28;5092673;27;70429;-43
2023/04/24 02:33:38;;;;;;;;;;;;;;;32.16;61.42;101068.25;5086247;27;66202;-44
2023/04/24 02:36:08;;;;;;;;;;;;;;;32.18;61.40;101071.53;5090684;27;69760;-46
2023/04/24 02:38:39;;;;;;;;;;;;;;;32.21;61.41;101068.41;5092212;27;66203;-44
2023/04/24 02:41:09;;;;;;;;;;;;;;;32.23;61.21;101060.84;5094147;27;70288;-44
2023/04/24 02:43:39;;;;;;;;;;;;;;;32.26;61.13;101047.66;5094115;27;67042;-47
2023/04/24 02:46:10;;;;;;;;;;;;;;;32.28;60.91;101040.09;5090133;27;70056;-44
2023/04/24 02:48:40;;;;;;;;;;;;;;;32.32;60.83;101040.50;5088565;27;64900;-45
2023/04/24 02:51:11;;;;;;;;;;;;;;;32.34;60.75;101037.53;5088250;27;70437;-46
2023/04/24 02:53:41;;;;;;;;;;;;;;;32.36;60.63;101035.44;5096352;27;66203;-44
2023/04/24 02:56:15;;;;;;;;;;;;;;;32.38;60.34;101034.16;5094494;27;69882;-44
2023/04/24 02:58:45;;;;;;;;;;;;;;;32.40;60.52;101032.06;5095529;27;66500;-44
2023/04/24 03:01:15;;;;;;;;;;;;;;;32.42;60.28;101024.50;5091880;27;69345;-45
2023/04/24 03:03:46;;;;;;;;;;;;;;;32.47;60.45;101016.53;5091067;27;63926;-46
2023/04/24 03:06:16;;;;;;;;;;;;;;;32.49;60.08;101013.59;5108371;27;69764;-44
2023/04/24 03:08:46;;;;;;;;;;;;;;;32.52;60.17;101013.13;5094650;27;66658;-46
2023/04/24 03:11:16;;;;;;;;;;;;;;;32.55;59.86;101003.72;5095048;27;69011;-45
2023/04/24 03:13:47;;;;;;;;;;;;;;;32.57;59.60;100993.44;5096308;27;66560;-44
2023/04/24 03:16:17;;;;;;;;;;;;;;;32.59;59.68;100991.31;5100701;27;69919;-44
2023/04/24 03:18:47;;;;;;;;;;;;;;;32.61;59.55;100992.75;5095495;27;66351;-46
2023/04/24 03:21:18;;;;;;;;;;;;;;;32.63;59.34;100985.22;5088503;27;70707;-45
2023/04/24 03:23:49;;;;;;;;;;;;;;;32.64;59.36;100977.88;5104699;27;66709;-44
2023/04/24 03:26:19;;;;;;;;;;;;;;;32.66;59.13;100975.78;5109886;27;69749;-45
2023/04/24 03:29:02;;;;;;;;;;;;;;;32.67;59.13;100974.69;5105698;27;67124;-45
2023/04/24 03:31:33;;;;;;;;;;;;;;;32.69;59.21;100972.59;5088490;27;68923;-45
2023/04/24 03:34:03;;;;;;;;;;;;;;;32.70;59.04;100966.09;5102240;27;66904;-44
2023/04/24 03:36:33;;;;;;;;;;;;;;;32.72;59.12;100969.41;5094937;27;69753;-45
2023/04/24 03:39:06;;;;;;;;;;;;;;;32.73;58.86;100960.19;5087417;27;65567;-45
2023/04/24 03:41:40;;;;;;;;;;;;;;;32.76;58.72;100965.16;5086102;27;70296;-45
2023/04/24 03:44:24;;;;;;;;;;;;;;;32.78;58.76;100968.47;5077153;27;66015;-45
2023/04/24 03:46:55;;;;;;;;;;;;;;;32.80;58.80;100960.94;5092272;27;69238;-45
2023/04/24 03:49:26;;;;;;;;;;;;;;;32.83;58.65;100957.75;5089043;27;66564;-46
2023/04/24 03:51:56;;;;;;;;;;;;;;;32.84;58.67;100953.97;5104202;27;68932;-45
2023/04/24 03:54:28;;;;;;;;;;;;;;;32.86;58.81;100943.72;5085150;27;66404;-45
2023/04/24 03:56:59;;;;;;;;;;;;;;;32.90;58.71;100954.94;5087563;27;70380;-47
2023/04/24 03:59:32;;;;;;;;;;;;;;;32.92;58.53;100952.81;5102475;27;66168;-45
2023/04/24 04:02:11;;;;;;;;;;;;;;;32.94;58.33;100956.97;5096884;27;69034;-46
2023/04/24 04:04:41;;;;;;;;;;;;;;;32.97;58.17;100954.84;5105086;27;66608;-45
2023/04/24 04:07:12;;;;;;;;;;;;;;;33.00;58.14;100949.78;5108807;27;70046;-47
2023/04/24 04:09:43;;;;;;;;;;;;;;;33.01;58.14;100950.63;5099652;27;65380;-47
2023/04/24 04:12:13;;;;;;;;;;;;;;;33.05;57.98;100946.38;5107547;27;69705;-45
2023/04/24 04:14:44;;;;;;;;;;;;;;;33.06;57.88;100946.13;5087955;27;65986;-46
2023/04/24 04:17:14;;;;;;;;;;;;;;;33.10;57.96;100941.09;5097464;27;70140;-46
2023/04/24 04:19:45;;;;;;;;;;;;;;;33.12;57.96;100938.94;5094052;27;66174;-49
2023/04/24 04:22:15;;;;;;;;;;;;;;;33.15;58.10;100939.31;5098353;27;70674;-46
2023/04/24 04:24:50;;;;;;;;;;;;;;;33.18;57.49;100932.56;5094240;27;66882;-45
2023/04/24 04:27:23;;;;;;;;;;;;;;;33.21;57.82;100923.09;5113269;27;70171;-46
2023/04/24 04:30:05;;;;;;;;;;;;;;;33.23;57.47;100921.81;5106823;27;66461;-47
2023/04/24 04:32:44;;;;;;;;;;;;;;;33.26;57.45;100924.06;5107887;27;69658;-45
2023/04/24 04:35:15;;;;;;;;;;;;;;;33.28;57.50;100921.13;5098089;27;65565;-47
2023/04/24 04:37:46;;;;;;;;;;;;;;;33.31;57.51;100910.59;5097246;27;69127;-49
2023/04/24 04:40:27;;;;;;;;;;;;;;;33.33;57.22;100913.91;5114054;27;66816;-47
2023/04/24 04:43:03;;;;;;;;;;;;;;;33.37;57.13;100904.19;5099733;27;70598;-45
2023/04/24 04:45:42;;;;;;;;;;;;;;;33.38;57.02;100897.72;5095065;27;66516;-45
2023/04/24 04:48:35;;;;;;;;;;;;;;;33.42;57.00;100891.78;5088407;27;70774;-46
2023/04/24 04:51:07;;;;;;;;;;;;;;;33.45;56.93;100891.31;5090794;27;66677;-46
2023/04/24 04:53:38;;;;;;;;;;;;;;;33.48;56.93;100885.41;5098954;27;70103;-46
2023/04/24 04:56:08;;;;;;;;;;;;;;;33.51;56.98;100876.75;5082118;27;66086;-44
2023/04/24 04:58:43;;;;;;;;;;;;;;;33.52;56.63;100875.72;5108733;27;69717;-45
2023/04/24 05:01:17;;;;;;;;;;;;;;;33.55;56.58;100875.25;5097071;27;66366;-44
2023/04/24 05:03:49;;;;;;;;;;;;;;;33.57;56.34;100863.09;5089323;27;69932;-45
2023/04/24 05:06:20;;;;;;;;;;;;;;;33.61;56.52;100857.16;5096620;27;66618;-45
2023/04/24 05:08:56;;;;;;;;;;;;;;;33.63;56.17;100850.41;5090976;27;69653;-44
2023/04/24 05:11:35;;;;;;;;;;;;;;;33.65;56.25;100842.81;5078573;27;66373;-45
2023/04/24 05:14:05;;;;;;;;;;;;;;;33.69;56.23;100837.75;5093000;27;70527;-46
2023/04/24 05:16:38;;;;;;;;;;;;;;;33.71;55.93;100824.72;5093543;27;66707;-45
2023/04/24 05:19:11;;;;;;;;;;;;;;;33.74;56.27;100824.22;5091420;27;70324;-45
2023/04/24 05:21:42;;;;;;;;;;;;;;;33.75;56.19;100815.84;5097503;27;66208;-45
2023/04/24 05:24:13;;;;;;;;;;;;;;;33.78;56.01;100820.78;5084817;27;70004;-47
2023/04/24 05:26:55;;;;;;;;;;;;;;;33.81;56.05;100817.59;5088187;27;66585;-44
2023/04/24 05:29:31;;;;;;;;;;;;;;;33.84;55.74;100802.69;5074175;27;70114;-46
2023/04/24 05:32:02;;;;;;;;;;;;;;;33.87;55.78;100794.03;5094184;27;65447;-46
2023/04/24 05:34:33;;;;;;;;;;;;;;;33.89;55.64;100789.16;5101345;27;69735;-46
2023/04/24 05:37:07;;;;;;;;;;;;;;;33.92;55.68;100785.13;5087450;27;67679;-46
2023/04/24 05:39:38;;;;;;;;;;;;;;;33.94;55.44;100774.84;5099127;27;69532;-44
2023/04/24 05:42:09;;;;;;;;;;;;;;;33.98;55.48;100768.66;5096728;27;66461;-46
2023/04/24 05:44:39;;;;;;;;;;;;;;;34.00;55.39;100757.53;5091165;27;70497;-45
2023/04/24 05:47:10;;;;;;;;;;;;;;;34.03;55.18;100759.75;5093906;27;66732;-45
2023/04/24 05:49:40;;;;;;;;;;;;;;;34.06;55.23;100762.03;5093434;27;69722;-44
2023/04/24 05:52:11;;;;;;;;;;;;;;;34.09;54.95;100750.66;5087815;27;66181;-45
2023/04/24 05:54:42;;;;;;;;;;;;;;;34.12;55.08;100750.16;5098136;27;69173;-45
2023/04/24 05:57:16;;;;;;;;;;;;;;;34.16;55.37;100743.16;5094062;27;66359;-43
2023/04/24 05:59:56;;;;;;;;;;;;;;;34.17;54.78;100736.63;5105151;27;70609;-47
2023/04/24 06:02:27;;;;;;;;;;;;;;;34.19;54.99;100737.22;5092354;27;65473;-46
2023/04/24 06:04:58;;;;;;;;;;;;;;;34.23;55.10;100730.19;5113310;27;70257;-47
2023/04/24 06:07:29;;;;;;;;;;;;;;;34.25;54.52;100728.06;5087967;27;64972;-46
2023/04/24 06:10:03;;;;;;;;;;;;;;;34.29;54.62;100722.94;5096355;27;68817;-44
2023/04/24 06:12:40;;;;;;;;;;;;;;;34.33;54.95;100706.94;5090739;27;66597;-46
2023/04/24 06:15:16;;;;;;;;;;;;;;;34.35;54.64;100705.63;5092985;27;70223;-47
2023/04/24 06:18:12;;;;;;;;;;;;;;;34.37;54.52;100699.91;5093212;27;66692;-45
2023/04/24 06:20:43;;;;;;;;;;;;;;;34.41;54.66;100688.28;5096244;27;68830;-46
2023/04/24 06:23:14;;;;;;;;;;;;;;;34.43;54.16;100685.31;5096766;27;66076;-46
2023/04/24 06:25:44;;;;;;;;;;;;;;;34.47;54.08;100681.03;5092693;27;70235;-45
2023/04/24 06:28:14;;;;;;;;;;;;;;;34.50;53.94;100663.34;5093676;27;65393;-45
2023/04/24 06:30:45;;;;;;;;;;;;;;;34.54;54.32;100659.03;5083076;27;70252;-46
2023/04/24 06:33:16;;;;;;;;;;;;;;;34.56;54.15;100655.03;5093807;27;66404;-45
2023/04/24 06:35:50;;;;;;;;;;;;;;;34.59;54.09;100657.25;5091388;27;70348;-46
2023/04/24 06:38:20;;;;;;;;;;;;;;;34.62;53.76;100651.28;5094579;27;66862;-46
2023/04/24 06:40:50;;;;;;;;;;;;;;;34.66;53.90;100652.47;5097089;27;70772;-46
2023/04/24 06:43:21;;;;;;;;;;;;;;;34.69;53.94;100651.94;5098718;27;65883;-45
2023/04/24 06:45:51;;;;;;;;;;;;;;;34.73;53.88;100646.81;5103172;27;70406;-46
2023/04/24 06:48:22;;;;;;;;;;;;;;;34.78;53.40;100637.88;5100555;27;65389;-47
2023/04/24 06:50:52;;;;;;;;;;;;;;;34.82;53.33;100622.66;5090055;27;69109;-45
2023/04/24 06:53:22;;;;;;;;;;;;;;;34.84;53.08;100625.97;5095349;27;66160;-45
2023/04/24 06:55:53;;;;;;;;;;;;;;;34.89;53.43;100623.31;5098270;27;70453;-47
2023/04/24 06:58:24;;;;;;;;;;;;;;;34.94;52.94;100612.47;5093346;27;66703;-45
2023/04/24 07:00:54;;;;;;;;;;;;;;;34.98;52.75;100610.88;5095830;27;70226;-45
2023/04/24 07:03:25;;;;;;;;;;;;;;;35.01;52.97;100604.91;5095797;27;65197;-45
2023/04/24 07:05:55;;;;;;;;;;;;;;;35.06;52.64;100602.28;5097991;27;70463;-45
2023/04/24 07:08:26;;;;;;;;;;;;;;;35.08;52.57;100600.13;5092292;27;66376;-45
2023/04/24 07:10:56;;;;;;;;;;;;;;;35.14;52.44;100592.81;5092777;27;69086;-44
2023/04/24 07:13:27;;;;;;;;;;;;;;;35.19;52.49;100583.84;5097553;27;66933;-45
2023/04/24 07:15:58;;;;;;;;;;;;;;;35.22;52.19;100577.91;5100295;27;70192;-46
2023/04/24 07:18:28;;;;;;;;;;;;;;;35.24;52.21;100581.19;5101246;27;65977;-46
2023/04/24 07:20:59;;;;;;;;;;;;;;;35.27;51.96;100576.06;5094453;27;70312;-45
2023/04/24 07:23:30;;;;;;;;;;;;;;;35.30;51.95;100574.69;5090256;27;67123;-46
2023/04/24 07:26:01;;;;;;;;;;;;;;;35.33;51.83;100558.66;5086404;27;69295;-44
2023/04/24 07:28:32;;;;;;;;;;;;;;;35.37;52.25;100556.22;5100933;27;66575;-46
2023/04/24 07:31:02;;;;;;;;;;;;;;;35.41;51.69;100554.66;5095102;27;69781;-45
2023/04/24 07:33:32;;;;;;;;;;;;;;;35.46;51.58;100538.31;5096939;27;66927;-47
2023/04/24 07:36:03;;;;;;;;;;;;;;;35.50;51.91;100553.09;5096218;27;69787;-45
2023/04/24 07:38:34;;;;;;;;;;;;;;;35.52;51.42;100550.94;5096586;27;66147;-46
2023/04/24 07:41:04;;;;;;;;;;;;;;;35.57;51.23;100548.25;5097744;27;70469;-45
2023/04/24 07:43:35;;;;;;;;;;;;;;;35.61;51.50;100553.19;5098385;27;65350;-44
2023/04/24 07:46:05;;;;;;;;;;;;;;;35.64;50.79;100534.41;5101750;27;69042;-44
2023/04/24 07:48:36;;;;;;;;;;;;;;;35.67;50.78;100541.25;5092718;27;66185;-46
2023/04/24 07:51:09;;;;;;;;;;;;;;;35.69;51.29;100541.78;5089449;27;70495;-45
2023/04/24 07:53:40;;;;;;;;;;;;;;;35.72;51.13;100552.22;5096899;27;65973;-46
2023/04/24 07:56:10;;;;;;;;;;;;;;;35.75;50.98;100551.69;5100113;27;69196;-44
2023/04/24 07:58:41;;;;;;;;;;;;;;;35.80;50.92;100559.88;5090965;27;66181;-45
2023/04/24 08:01:11;;;;;;;;;;;;;;;35.84;50.33;100552.00;5086862;27;69988;-47
2023/04/24 08:03:41;;;;;;;;;;;;;;;35.87;50.78;100546.84;5098760;27;66055;-45
2023/04/24 08:06:12;;;;;;;;;;;;;;;35.90;50.94;100551.78;5094198;27;70294;-45
2023/04/24 08:08:42;;;;;;;;;;;;;;;35.54;50.85;100486.00;5100153;27;67047;-45
2023/04/24 08:11:12;;;;;;;;;;;;;;;35.95;50.92;100537.34;5079354;27;70232;-46
2023/04/24 08:13:42;;;;;;;;;;;;;;;35.95;50.54;100527.25;5092669;27;66866;-46
2023/04/24 08:16:12;;;;;;;;;;;;;;;35.98;50.54;100526.72;5095316;27;70562;-46
2023/04/24 08:18:43;;;;;;;;;;;;;;;35.97;51.07;100524.25;5098285;27;66859;-45
2023/04/24 08:21:18;;;;;;;;;;;;;;;35.97;51.13;100519.63;5105688;27;62224;-45
2023/04/24 08:23:49;;;;;;;;;;;;;;;35.99;50.57;100527.53;5088072;27;66706;-47
2023/04/24 08:26:19;;;;;;;;;;;;;;;35.97;50.76;100530.53;5077427;27;69639;-45
2023/04/24 08:28:50;;;;;;;;;;;;;;;35.98;51.07;100525.91;5111420;27;67387;-47
2023/04/24 08:31:20;;;;;;;;;;;;;;;35.98;51.14;100526.72;5101830;27;68886;-45
2023/04/24 08:33:50;;;;;;;;;;;;;;;36.00;50.60;100521.81;5093554;27;66684;-46
2023/04/24 08:36:21;;;;;;;;;;;;;;;35.98;51.11;100515.78;5098350;27;69651;-45
2023/04/24 08:39:00;;;;;;;;;;;;;;;35.99;50.82;100511.16;5089387;27;66802;-45
2023/04/24 08:41:30;;;;;;;;;;;;;;;35.98;50.87;100493.97;5089833;27;70325;-45
2023/04/24 08:44:02;;;;;;;;;;;;;;;35.97;50.96;100496.97;5092552;27;66968;-46
2023/04/24 08:46:33;;;;;;;;;;;;;;;35.97;51.58;100503.25;5098128;27;69865;-45
2023/04/24 08:49:03;;;;;;;;;;;;;;;35.99;51.57;100511.97;5094979;27;66158;-45
2023/04/24 08:51:34;;;;;;;;;;;;;;;36.00;51.14;100512.81;5092592;27;70281;-46
2023/04/24 08:54:05;;;;;;;;;;;;;;;36.00;51.13;100519.09;5090280;27;66438;-46
2023/04/24 08:56:40;;;;;;;;;;;;;;;36.00;51.70;100534.66;5086221;27;70457;-44
2023/04/24 08:59:10;;;;;;;;;;;;;;;35.98;51.28;100534.91;5089747;27;66717;-46
2023/04/24 09:01:40;;;;;;;;;;;;;;;35.97;51.85;100521.53;5089674;27;70236;-46
2023/04/24 09:04:17;;;;;;;;;;;;;;;35.97;51.58;100519.63;5067994;27;64914;-46
2023/04/24 09:06:54;;;;;;;;;;;;;;;35.96;52.07;100523.41;5093359;27;70209;-45
2023/04/24 09:09:25;;;;;;;;;;;;;;;35.94;51.71;100525.63;5086298;27;67050;-46
2023/04/24 09:11:57;;;;;;;;;;;;;;;35.93;52.19;100523.13;5095179;27;69864;-45
2023/04/24 09:14:27;;;;;;;;;;;;;;;35.91;52.28;100523.41;5089827;27;65800;-45
2023/04/24 09:16:58;;;;;;;;;;;;;;;35.17;54.10;100471.53;5087086;27;69897;-45
2023/04/24 09:19:29;;;;;;;;;;;;;;;35.37;55.22;100548.06;5091955;27;66755;-45
2023/04/24 09:21:59;;;;;;;;;;;;;;;35.24;56.02;100553.94;5091687;27;70023;-44
2023/04/24 09:24:30;;;;;;;;;;;;;;;35.16;56.14;100547.06;5091297;27;66929;-44
2023/04/24 09:27:03;;;;;;;;;;;;;;;35.06;57.09;100545.03;5098705;27;70703;-45
2023/04/24 09:29:34;;;;;;;;;;;;;;;34.99;57.56;100552.53;5091363;27;66769;-45
2023/04/24 09:32:24;;;;;;;;;;;;;;;34.95;57.47;100556.06;5087763;27;70334;-46
2023/04/24 09:35:08;;;;;;;;;;;;;;;34.90;58.43;100565.00;5093678;27;66877;-45
2023/04/24 09:37:41;;;;;;;;;;;;;;;34.83;58.49;100558.94;5083608;27;69227;-45
2023/04/24 09:40:21;;;;;;;;;;;;;;;34.82;58.81;100557.28;5095443;27;66676;-45
2023/04/24 09:43:00;;;;;;;;;;;;;;;34.83;58.60;100553.47;5090952;27;70229;-44
2023/04/24 09:45:39;;;;;;;;;;;;;;;34.78;59.37;100550.69;5085976;27;66060;-44
2023/04/24 09:48:10;;;;;;;;;;;;;;;34.78;59.33;100561.59;5086239;27;69970;-45
2023/04/24 09:50:45;;;;;;;;;;;;;;;34.74;59.21;100577.59;5084444;27;66526;-44
2023/04/24 09:53:16;;;;;;;;;;;;;;;34.70;58.97;100601.81;5086673;27;68908;-45
2023/04/24 09:55:48;;;;;;;;;;;;;;;34.66;59.56;100603.41;5090597;27;65376;-45
2023/04/24 09:58:18;;;;;;;;;;;;;;;34.67;59.58;100598.78;5088042;27;69002;-46
2023/04/24 10:00:48;;;;;;;;;;;;;;;34.63;59.41;100590.31;5085964;27;66663;-45
2023/04/24 10:03:19;;;;;;;;;;;;;;;34.61;59.41;100573.38;5084828;27;69341;-46
2023/04/24 10:05:51;;;;;;;;;;;;;;;34.61;59.71;100567.94;5095922;27;65529;-46
2023/04/24 10:08:22;;;;;;;;;;;;;;;34.59;59.15;100561.09;5088596;27;69515;-46
2023/04/24 10:10:52;;;;;;;;;;;;;;;34.59;58.85;100570.06;5087995;27;67009;-44
2023/04/24 10:13:22;;;;;;;;;;;;;;;34.59;58.40;100600.03;5073734;27;69395;-47
2023/04/24 10:15:52;;;;;;;;;;;;;;;34.56;58.57;100619.63;5091379;27;66413;-47
2023/04/24 10:18:24;;;;;;;;;;;;;;;34.55;58.24;100639.75;5088306;27;70467;-47
2023/04/24 10:20:55;;;;;;;;;;;;;;;34.49;58.69;100635.28;5096597;27;66439;-45
2023/04/24 10:23:25;;;;;;;;;;;;;;;34.49;59.44;100643.44;5089873;27;70238;-44
2023/04/24 10:25:55;;;;;;;;;;;;;;;34.46;59.87;100646.66;5094789;27;65993;-46
2023/04/24 10:28:26;;;;;;;;;;;;;;;34.43;59.71;100650.72;5092600;27;69350;-46
2023/04/24 10:30:57;;;;;;;;;;;;;;;34.40;59.78;100673.00;5093245;27;65789;-46
2023/04/24 10:33:28;;;;;;;;;;;;;;;34.41;60.23;100687.47;5090404;27;70168;-45
2023/04/24 10:35:58;;;;;;;;;;;;;;;34.39;60.32;100689.59;5093362;27;66848;-44
2023/04/24 10:38:29;;;;;;;;;;;;;;;34.39;61.06;100689.59;5103158;27;69942;-46
2023/04/24 10:41:10;;;;;;;;;;;;;;;34.40;61.43;100669.47;5088938;27;66551;-45
2023/04/24 10:43:41;;;;;;;;;;;;;;;34.42;61.34;100679.03;5097623;27;70622;-46
2023/04/24 10:46:16;;;;;;;;;;;;;;;34.06;60.83;100609.59;5093091;27;66952;-46
2023/04/24 10:48:58;;;;;;;;;;;;;;;34.65;60.11;100678.03;5108122;27;69570;-46
2023/04/24 10:51:46;;;;;;;;;;;;;;;34.72;59.95;100666.16;5095164;27;66053;-45
2023/04/24 10:54:26;;;;;;;;;;;;;;;34.77;59.84;100675.22;5093064;27;69849;-46
2023/04/24 10:57:17;;;;;;;;;;;;;;;34.81;59.61;100672.81;5090206;27;66327;-45
2023/04/24 10:59:48;;;;;;;;;;;;;;;34.86;59.09;100678.31;5092291;27;70460;-46
2023/04/24 11:02:35;;;;;;;;;;;;;;;34.87;59.14;100686.22;5087145;27;66580;-47
2023/04/24 11:05:06;;;;;;;;;;;;;;;34.89;59.24;100705.88;5096977;27;69494;-46
2023/04/24 11:07:55;;;;;;;;;;;;;;;34.92;59.64;100720.91;5090330;27;65475;-45
2023/04/24 11:10:28;;;;;;;;;;;;;;;34.91;59.94;100731.00;5086531;27;69882;-47
2023/04/24 11:12:59;;;;;;;;;;;;;;;34.91;59.60;100735.63;5098667;27;66870;-45
2023/04/24 11:15:29;;;;;;;;;;;;;;;34.87;59.84;100740.72;5098461;27;70339;-46
2023/04/24 11:18:00;;;;;;;;;;;;;;;34.86;59.73;100744.53;5116790;27;66539;-45
2023/04/24 11:20:30;;;;;;;;;;;;;;;34.84;60.03;100745.88;5088085;27;70339;-47
2023/04/24 11:23:06;;;;;;;;;;;;;;;34.84;60.28;100756.78;5091958;27;66934;-46
2023/04/24 11:25:36;;;;;;;;;;;;;;;34.82;60.68;100757.00;5089990;27;70871;-46
2023/04/24 11:28:15;;;;;;;;;;;;;;;34.82;60.99;100761.63;5090471;27;66687;-46
2023/04/24 11:30:45;;;;;;;;;;;;;;;34.80;60.68;100750.16;5090570;27;68925;-45
2023/04/24 11:33:20;;;;;;;;;;;;;;;34.79;60.96;100737.63;5086961;27;66217;-47
2023/04/24 11:35:51;;;;;;;;;;;;;;;34.78;61.05;100730.53;5100004;27;69007;-45
2023/04/24 11:38:21;;;;;;;;;;;;;;;34.77;60.88;100720.69;5095809;27;67624;-46
2023/04/24 11:40:53;;;;;;;;;;;;;;;34.74;61.42;100707.56;5089071;27;69975;-45
2023/04/24 11:43:24;;;;;;;;;;;;;;;34.73;61.51;100714.09;5093126;27;66630;-45
2023/04/24 11:45:54;;;;;;;;;;;;;;;34.69;61.72;100716.50;5088757;27;70712;-45
2023/04/24 11:48:25;;;;;;;;;;;;;;;34.68;61.77;100710.22;5099600;27;65512;-46
2023/04/24 11:50:55;;;;;;;;;;;;;;;34.67;61.91;100714.03;5094638;27;70002;-47
2023/04/24 11:53:25;;;;;;;;;;;;;;;34.67;61.68;100718.66;5096894;27;66656;-48
2023/04/24 11:55:56;;;;;;;;;;;;;;;34.68;61.65;100721.13;5091413;27;70787;-47
2023/04/24 11:58:38;;;;;;;;;;;;;;;34.67;61.74;100719.47;5095328;27;66483;-46
2023/04/24 12:01:08;;;;;;;;;;;;;;;34.66;61.94;100726.00;5080692;27;69742;-47
2023/04/24 12:03:39;;;;;;;;;;;;;;;34.50;64.61;100724.09;5061116;27;66267;-46
2023/04/24 12:06:10;;;;;;;;;;;;;;;34.26;64.21;100717.97;5095453;27;68875;-47
2023/04/24 12:08:41;;;;;;;;;;;;;;;34.16;65.56;100718.66;5093102;27;66923;-45
2023/04/24 12:11:11;;;;;;;;;;;;;;;34.03;65.57;100714.31;5093202;27;69762;-45
2023/04/24 12:13:42;;;;;;;;;;;;;;;33.93;66.34;100729.63;5093247;27;65750;-44
2023/04/24 12:16:12;;;;;;;;;;;;;;;33.91;67.25;100720.91;5097178;27;70577;-46
2023/04/24 12:18:46;;;;;;;;;;;;;;;33.91;68.22;100726.34;5094346;27;66344;-46
2023/04/24 12:21:21;;;;;;;;;;;;;;;33.92;68.29;100733.44;5097105;27;70282;-44
2023/04/24 12:23:54;;;;;;;;;;;;;;;33.89;67.74;100742.09;5094783;27;66017;-49
2023/04/24 12:26:25;;;;;;;;;;;;;;;33.89;67.84;100740.19;5094439;27;70770;-44
2023/04/24 12:29:01;;;;;;;;;;;;;;;33.89;67.70;100740.19;5098237;27;65273;-47
2023/04/24 12:31:32;;;;;;;;;;;;;;;33.74;65.48;100738.03;5096385;27;70349;-48
2023/04/24 12:34:03;;;;;;;;;;;;;;;33.52;63.43;100734.31;5099155;27;66211;-47
2023/04/24 12:36:35;;;;;;;;;;;;;;;33.30;61.03;100736.84;5092866;27;69749;-48
2023/04/24 12:39:14;;;;;;;;;;;;;;;33.05;58.69;100731.69;5094506;27;65344;-45
2023/04/24 12:41:51;;;;;;;;;;;;;;;32.87;56.90;100732.63;5090559;27;69359;-43
2023/04/24 12:44:28;;;;;;;;;;;;;;;32.70;55.43;100732.50;5098799;27;65073;-45
2023/04/24 12:46:59;;;;;;;;;;;;;;;32.57;54.23;100738.16;5093620;27;69037;-48
2023/04/24 12:49:31;;;;;;;;;;;;;;;32.44;52.80;100740.03;5072759;27;65925;-46
2023/04/24 12:52:01;;;;;;;;;;;;;;;32.31;51.95;100742.94;5092115;27;70557;-46
2023/04/24 12:54:34;;;;;;;;;;;;;;;32.20;51.04;100751.91;5097525;27;66543;-49
2023/04/24 12:57:04;;;;;;;;;;;;;;;32.15;51.92;100757.19;5085369;27;70411;-46
2023/04/24 12:59:35;;;;;;;;;;;;;;;32.08;51.00;100759.19;5103646;27;66113;-49